createdAt,value
2022-11-27T00:04:17.707Z,0.37
2022-11-27T00:09:23.664Z,0.33
2022-11-27T00:14:29.536Z,0.31
2022-11-27T00:19:35.278Z,0.32
2022-11-27T00:24:41.102Z,0.36
2022-11-27T00:29:46.930Z,0.38
2022-11-27T00:34:52.651Z,0.36
2022-11-27T00:39:58.364Z,0.36
2022-11-27T00:45:04.529Z,0.40
2022-11-27T00:50:11.159Z,0.42
2022-11-27T00:55:17.072Z,0.45
2022-11-27T01:00:23.934Z,0.43
2022-11-27T01:05:29.614Z,0.46
2022-11-27T01:10:35.366Z,0.46
2022-11-27T01:15:41.195Z,0.43
2022-11-27T01:20:46.859Z,0.42
2022-11-27T01:25:55.942Z,0.41
2022-11-27T01:31:06.977Z,0.41
2022-11-27T01:36:14.652Z,0.40
2022-11-27T01:41:22.551Z,0.38
2022-11-27T01:46:35.084Z,0.37
2022-11-27T01:51:46.668Z,0.38
2022-11-27T01:56:57.941Z,0.39
2022-11-27T02:02:05.069Z,0.37
2022-11-27T02:07:11.166Z,0.38
2022-11-27T02:12:25.128Z,0.41
2022-11-27T02:17:39.473Z,0.44
2022-11-27T02:23:02.517Z,0.42
2022-11-27T02:28:34.786Z,0.39
2022-11-27T02:33:45.460Z,0.40
2022-11-27T02:39:01.065Z,0.43
2022-11-27T02:44:10.562Z,0.43
2022-11-27T02:49:19.346Z,0.41
2022-11-27T02:54:28.825Z,0.42
2022-11-27T02:59:36.649Z,0.46
2022-11-27T03:04:46.518Z,0.51
2022-11-27T03:09:59.165Z,0.53
2022-11-27T03:15:06.674Z,0.54
2022-11-27T03:20:18.840Z,0.59
2022-11-27T03:25:25.137Z,0.63
2022-11-27T03:30:30.870Z,0.63
2022-11-27T03:35:36.686Z,0.63
2022-11-27T03:40:50.351Z,0.66
2022-11-27T03:46:01.063Z,0.71
2022-11-27T03:51:15.200Z,0.78
2022-11-27T03:56:32.440Z,0.79
2022-11-27T04:01:39.126Z,0.77
2022-11-27T04:06:45.026Z,0.76
2022-11-27T04:11:50.635Z,0.78
2022-11-27T04:16:56.477Z,0.78
2022-11-27T04:22:02.460Z,0.77
2022-11-27T04:27:08.388Z,0.75
2022-11-27T04:32:14.251Z,0.77
2022-11-27T04:37:19.963Z,0.80
2022-11-27T04:42:27.036Z,0.82
2022-11-27T04:47:32.885Z,0.82
2022-11-27T04:52:38.769Z,0.83
2022-11-27T04:57:44.598Z,0.87
2022-11-27T05:02:50.403Z,0.90
2022-11-27T05:07:56.319Z,0.89
2022-11-27T05:13:02.151Z,0.86
2022-11-27T05:18:08.119Z,0.88
2022-11-27T05:23:13.836Z,0.91
2022-11-27T05:28:26.254Z,0.92
2022-11-27T05:33:32.527Z,0.91
2022-11-27T05:38:38.423Z,0.91
2022-11-27T05:43:44.287Z,0.94
2022-11-27T05:48:50.669Z,0.97
2022-11-27T05:53:56.414Z,0.96
2022-11-27T05:59:02.273Z,0.92
2022-11-27T06:04:08.192Z,0.91
2022-11-27T06:09:14.066Z,0.92
2022-11-27T06:14:19.705Z,0.95
2022-11-27T06:19:25.502Z,0.97
2022-11-27T06:24:31.211Z,0.98
2022-11-27T06:29:37.916Z,1.01
2022-11-27T06:34:43.848Z,1.09
2022-11-27T06:39:50.794Z,1.13
2022-11-27T06:44:56.540Z,1.14
2022-11-27T06:50:02.289Z,1.16
2022-11-27T06:55:09.004Z,1.20
2022-11-27T07:00:16.566Z,1.25
2022-11-27T07:05:23.125Z,1.27
2022-11-27T07:10:28.921Z,1.29
2022-11-27T07:15:35.957Z,1.33
2022-11-27T07:20:41.835Z,1.41
2022-11-27T07:25:47.526Z,1.47
2022-11-27T07:30:58.565Z,1.48
2022-11-27T07:36:04.024Z,1.54
2022-11-27T07:41:10.665Z,1.59
2022-11-27T07:46:18.916Z,1.63
2022-11-27T07:51:24.631Z,1.63
2022-11-27T07:56:30.766Z,1.62
2022-11-27T08:01:36.800Z,1.67
2022-11-27T08:06:42.625Z,1.69
2022-11-27T08:11:48.353Z,1.70
2022-11-27T08:16:54.143Z,1.67
2022-11-27T08:21:59.835Z,1.70
2022-11-27T08:27:05.531Z,1.73
2022-11-27T08:32:11.941Z,1.77
2022-11-27T08:37:17.838Z,1.81
2022-11-27T08:42:23.732Z,1.93
2022-11-27T08:47:29.629Z,2.07
2022-11-27T08:52:35.374Z,2.16
2022-11-27T08:57:41.153Z,2.20
2022-11-27T09:02:46.956Z,2.29
2022-11-27T09:07:53.197Z,2.34
2022-11-27T09:12:59.698Z,2.33
2022-11-27T09:18:05.711Z,2.36
2022-11-27T09:23:14.521Z,2.46
2022-11-27T09:28:21.181Z,2.54
2022-11-27T09:33:28.520Z,2.66
2022-11-27T09:38:35.168Z,2.69
2022-11-27T09:43:53.389Z,2.77
2022-11-27T09:49:03.313Z,2.88
2022-11-27T09:54:16.539Z,2.98
2022-11-27T09:59:29.078Z,3.06
2022-11-27T10:04:58.043Z,3.19
2022-11-27T10:10:16.244Z,3.36
2022-11-27T10:15:36.561Z,3.47
2022-11-27T10:20:48.823Z,3.53
2022-11-27T10:25:58.020Z,3.52
2022-11-27T10:31:11.439Z,3.50
2022-11-27T10:36:28.416Z,3.50
2022-11-27T10:41:49.444Z,3.54
2022-11-27T10:47:02.086Z,3.62
2022-11-27T10:52:14.259Z,3.69
2022-11-27T10:57:40.398Z,3.77
2022-11-27T11:02:46.273Z,3.82
2022-11-27T11:08:02.085Z,3.87
2022-11-27T11:13:19.819Z,3.88
2022-11-27T11:18:27.765Z,3.90
2022-11-27T11:23:35.771Z,3.97
2022-11-27T11:28:50.112Z,4.02
2022-11-27T11:33:59.168Z,4.00
2022-11-27T11:39:05.152Z,3.95
2022-11-27T11:44:25.830Z,3.90
2022-11-27T11:49:34.029Z,3.88
2022-11-27T11:54:53.518Z,3.89
2022-11-27T12:00:05.841Z,3.87
2022-11-27T12:05:24.324Z,3.88
2022-11-27T12:10:38.201Z,3.85
2022-11-27T12:15:50.608Z,3.86
2022-11-27T12:21:07.042Z,3.86
2022-11-27T12:26:28.087Z,3.86
2022-11-27T12:31:53.251Z,3.84
2022-11-27T12:37:17.332Z,3.84
2022-11-27T12:42:29.595Z,3.87
2022-11-27T12:47:41.021Z,3.94
2022-11-27T12:52:55.369Z,3.99
2022-11-27T12:58:06.440Z,3.97
2022-11-27T13:03:16.159Z,3.95
2022-11-27T13:08:26.181Z,3.95
2022-11-27T13:13:37.799Z,4.00
2022-11-27T13:18:49.476Z,4.02
2022-11-27T13:23:55.693Z,4.00
2022-11-27T13:29:05.979Z,3.97
2022-11-27T13:34:20.531Z,3.94
2022-11-27T13:39:28.538Z,3.95
2022-11-27T13:44:40.217Z,3.96
2022-11-27T13:49:57.847Z,3.92
2022-11-27T13:55:06.265Z,3.87
2022-11-27T14:00:16.281Z,3.84
2022-11-27T14:05:35.365Z,3.84
2022-11-27T14:10:51.553Z,3.85
2022-11-27T14:16:05.011Z,3.81
2022-11-27T14:21:26.134Z,3.74
2022-11-27T14:26:32.111Z,3.67
2022-11-27T14:31:37.829Z,3.65
2022-11-27T14:36:43.601Z,3.58
2022-11-27T14:41:58.171Z,3.49
2022-11-27T14:47:06.959Z,3.35
2022-11-27T14:52:17.780Z,3.26
2022-11-27T14:57:26.618Z,3.24
2022-11-27T15:02:32.694Z,3.22
2022-11-27T15:07:47.982Z,3.16
2022-11-27T15:12:56.658Z,3.08
2022-11-27T15:18:06.600Z,2.99
2022-11-27T15:23:19.817Z,2.89
2022-11-27T15:28:36.320Z,2.81
2022-11-27T15:33:42.364Z,2.70
2022-11-27T15:38:51.028Z,2.49
2022-11-27T15:43:56.894Z,2.39
2022-11-27T15:49:02.768Z,2.39
2022-11-27T15:54:08.577Z,2.35
2022-11-27T15:59:14.560Z,2.27
2022-11-27T16:04:20.841Z,2.26
2022-11-27T16:09:26.546Z,2.27
2022-11-27T16:14:32.172Z,2.28
2022-11-27T16:19:37.834Z,2.33
2022-11-27T16:24:44.635Z,2.39
2022-11-27T16:29:50.566Z,2.40
2022-11-27T16:34:56.481Z,2.38
2022-11-27T16:40:02.700Z,2.38
2022-11-27T16:45:10.269Z,2.34
2022-11-27T16:50:17.098Z,2.30
2022-11-27T16:55:24.038Z,2.23
2022-11-27T17:00:30.356Z,2.18
2022-11-27T17:05:38.405Z,2.15
2022-11-27T17:10:45.412Z,2.17
2022-11-27T17:15:51.343Z,2.12
2022-11-27T17:21:02.631Z,2.07
2022-11-27T17:26:13.081Z,2.03
2022-11-27T17:31:21.061Z,2.09
2022-11-27T17:36:33.795Z,2.17
2022-11-27T17:41:46.914Z,2.20
2022-11-27T17:46:52.561Z,2.18
2022-11-27T17:52:01.792Z,2.16
2022-11-27T17:57:10.974Z,2.19
2022-11-27T18:02:18.039Z,2.21
2022-11-27T18:07:24.483Z,2.23
2022-11-27T18:12:30.379Z,2.21
2022-11-27T18:17:36.954Z,2.23
2022-11-27T18:22:42.707Z,2.27
2022-11-27T18:27:48.545Z,2.31
2022-11-27T18:32:54.474Z,2.33
2022-11-27T18:38:00.313Z,2.37
2022-11-27T18:43:06.063Z,2.43
2022-11-27T18:48:12.189Z,2.52
2022-11-27T18:53:17.858Z,2.53
2022-11-27T18:58:23.600Z,2.50
2022-11-27T19:03:29.487Z,2.51
2022-11-27T19:08:37.201Z,2.49
2022-11-27T19:13:43.923Z,2.43
2022-11-27T19:18:50.072Z,2.37
2022-11-27T19:23:57.432Z,2.29
2022-11-27T19:29:05.853Z,2.22
2022-11-27T19:34:13.999Z,2.21
2022-11-27T19:39:20.008Z,2.23
2022-11-27T19:44:27.208Z,2.21
2022-11-27T19:49:33.103Z,2.15
2022-11-27T19:54:39.501Z,2.10
2022-11-27T19:59:46.144Z,2.14
2022-11-27T20:04:53.854Z,2.16
2022-11-27T20:09:59.805Z,2.11
2022-11-27T20:15:07.770Z,2.07
2022-11-27T20:20:16.657Z,2.03
2022-11-27T20:25:22.689Z,2.03
2022-11-27T20:30:28.547Z,2.06
2022-11-27T20:35:34.331Z,2.04
2022-11-27T20:40:41.187Z,2.01
2022-11-27T20:45:47.144Z,2.03
2022-11-27T20:50:53.061Z,2.04
2022-11-27T20:56:04.162Z,2.01
2022-11-27T21:01:16.647Z,2.00
2022-11-27T21:06:24.261Z,1.98
2022-11-27T21:11:32.593Z,1.99
2022-11-27T21:16:42.010Z,1.98
2022-11-27T21:21:48.196Z,1.97
2022-11-27T21:26:54.225Z,1.92
2022-11-27T21:32:00.282Z,1.90
2022-11-27T21:37:06.483Z,1.94
2022-11-27T21:42:13.335Z,1.93
2022-11-27T21:47:19.361Z,1.91
2022-11-27T21:52:25.354Z,1.88
2022-11-27T21:57:31.357Z,1.84
2022-11-27T22:02:37.304Z,1.87
2022-11-27T22:07:43.338Z,1.90
2022-11-27T22:12:49.161Z,1.88
2022-11-27T22:17:55.035Z,1.86
2022-11-27T22:23:01.589Z,1.87
2022-11-27T22:28:07.545Z,1.83
2022-11-27T22:33:14.657Z,1.80
2022-11-27T22:38:20.457Z,1.84
2022-11-27T22:43:26.230Z,1.86
2022-11-27T22:48:32.423Z,1.86
2022-11-27T22:53:38.918Z,1.82
2022-11-27T22:58:44.857Z,1.81
2022-11-27T23:03:53.200Z,1.85
2022-11-27T23:08:59.729Z,1.83
2022-11-27T23:14:05.649Z,1.82
2022-11-27T23:19:12.412Z,1.86
2022-11-27T23:24:18.220Z,1.92
2022-11-27T23:29:24.013Z,1.95
2022-11-27T23:34:30.659Z,1.92
2022-11-27T23:39:36.703Z,1.88
2022-11-27T23:44:42.595Z,1.89
2022-11-27T23:49:48.686Z,1.91
2022-11-27T23:54:54.475Z,1.91
